sensor_id;sensor_type;location;lat;lon;timestamp;P1;durP1;ratioP1;P2;durP2;ratioP2
209;SDS011;90;48.810;9.120;2022-09-17T00:01:16;5.40;;;1.90;;
209;SDS011;90;48.810;9.120;2022-09-17T00:03:49;4.77;;;2.13;;
209;SDS011;90;48.810;9.120;2022-09-17T00:06:17;3.20;;;1.80;;
209;SDS011;90;48.810;9.120;2022-09-17T00:08:46;2.10;;;1.97;;
209;SDS011;90;48.810;9.120;2022-09-17T00:11:14;2.13;;;2.00;;
209;SDS011;90;48.810;9.120;2022-09-17T00:13:45;4.23;;;1.87;;
209;SDS011;90;48.810;9.120;2022-09-17T00:18:50;2.00;;;1.70;;
209;SDS011;90;48.810;9.120;2022-09-17T00:21:17;6.00;;;2.67;;
209;SDS011;90;48.810;9.120;2022-09-17T00:23:45;2.10;;;1.83;;
209;SDS011;90;48.810;9.120;2022-09-17T00:26:12;3.10;;;1.97;;
209;SDS011;90;48.810;9.120;2022-09-17T00:28:39;3.50;;;2.00;;
209;SDS011;90;48.810;9.120;2022-09-17T00:31:09;3.50;;;1.93;;
209;SDS011;90;48.810;9.120;2022-09-17T00:33:38;2.77;;;2.33;;
209;SDS011;90;48.810;9.120;2022-09-17T00:36:05;4.00;;;2.03;;
209;SDS011;90;48.810;9.120;2022-09-17T00:38:33;2.73;;;1.90;;
209;SDS011;90;48.810;9.120;2022-09-17T00:41:01;2.83;;;2.07;;
209;SDS011;90;48.810;9.120;2022-09-17T00:43:33;3.00;;;2.80;;
209;SDS011;90;48.810;9.120;2022-09-17T00:46:02;5.07;;;2.50;;
209;SDS011;90;48.810;9.120;2022-09-17T00:48:35;2.40;;;2.10;;
209;SDS011;90;48.810;9.120;2022-09-17T00:51:04;2.50;;;2.30;;
209;SDS011;90;48.810;9.120;2022-09-17T00:53:34;3.47;;;2.40;;
209;SDS011;90;48.810;9.120;2022-09-17T00:56:02;3.43;;;2.30;;
209;SDS011;90;48.810;9.120;2022-09-17T00:58:34;3.80;;;2.50;;
209;SDS011;90;48.810;9.120;2022-09-17T01:01:06;4.00;;;2.20;;
209;SDS011;90;48.810;9.120;2022-09-17T01:03:33;3.73;;;2.10;;
209;SDS011;90;48.810;9.120;2022-09-17T01:06:03;3.47;;;2.40;;
209;SDS011;90;48.810;9.120;2022-09-17T01:08:39;3.53;;;2.67;;
209;SDS011;90;48.810;9.120;2022-09-17T01:11:20;3.40;;;2.57;;
209;SDS011;90;48.810;9.120;2022-09-17T01:14:07;3.80;;;2.50;;
209;SDS011;90;48.810;9.120;2022-09-17T01:16:45;7.13;;;2.93;;
209;SDS011;90;48.810;9.120;2022-09-17T01:19:30;2.60;;;2.40;;
209;SDS011;90;48.810;9.120;2022-09-17T01:22:19;3.00;;;2.23;;
209;SDS011;90;48.810;9.120;2022-09-17T01:24:59;6.53;;;2.30;;
209;SDS011;90;48.810;9.120;2022-09-17T01:28:00;6.00;;;2.80;;
209;SDS011;90;48.810;9.120;2022-09-17T01:30:58;3.50;;;2.73;;
209;SDS011;90;48.810;9.120;2022-09-17T01:33:30;5.30;;;2.50;;
209;SDS011;90;48.810;9.120;2022-09-17T01:36:12;3.73;;;2.40;;
209;SDS011;90;48.810;9.120;2022-09-17T01:38:48;3.33;;;2.67;;
209;SDS011;90;48.810;9.120;2022-09-17T01:41:23;4.60;;;2.60;;
209;SDS011;90;48.810;9.120;2022-09-17T01:44:00;4.80;;;2.63;;
209;SDS011;90;48.810;9.120;2022-09-17T01:46:34;4.13;;;2.40;;
209;SDS011;90;48.810;9.120;2022-09-17T01:49:05;7.73;;;2.50;;
209;SDS011;90;48.810;9.120;2022-09-17T01:51:36;4.10;;;2.80;;
209;SDS011;90;48.810;9.120;2022-09-17T01:54:06;2.40;;;2.20;;
209;SDS011;90;48.810;9.120;2022-09-17T01:56:41;3.60;;;3.00;;
209;SDS011;90;48.810;9.120;2022-09-17T01:59:14;4.47;;;2.70;;
209;SDS011;90;48.810;9.120;2022-09-17T02:01:49;3.20;;;3.03;;
209;SDS011;90;48.810;9.120;2022-09-17T02:04:20;2.57;;;2.37;;
209;SDS011;90;48.810;9.120;2022-09-17T02:06:54;2.80;;;2.60;;
209;SDS011;90;48.810;9.120;2022-09-17T02:09:28;4.10;;;2.80;;
209;SDS011;90;48.810;9.120;2022-09-17T02:12:00;2.93;;;2.70;;
209;SDS011;90;48.810;9.120;2022-09-17T02:14:30;3.50;;;2.73;;
209;SDS011;90;48.810;9.120;2022-09-17T02:17:04;3.20;;;3.00;;
209;SDS011;90;48.810;9.120;2022-09-17T02:19:38;2.93;;;2.73;;
209;SDS011;90;48.810;9.120;2022-09-17T02:22:09;3.22;;;2.72;;
209;SDS011;90;48.810;9.120;2022-09-17T02:24:43;3.53;;;2.70;;
209;SDS011;90;48.810;9.120;2022-09-17T02:27:17;2.97;;;2.73;;
209;SDS011;90;48.810;9.120;2022-09-17T02:29:48;4.60;;;2.57;;
209;SDS011;90;48.810;9.120;2022-09-17T02:32:17;5.85;;;2.75;;
209;SDS011;90;48.810;9.120;2022-09-17T02:34:44;5.93;;;3.00;;
209;SDS011;90;48.810;9.120;2022-09-17T02:37:11;2.60;;;2.40;;
209;SDS011;90;48.810;9.120;2022-09-17T02:39:39;2.93;;;2.80;;
209;SDS011;90;48.810;9.120;2022-09-17T02:42:09;2.57;;;2.37;;
209;SDS011;90;48.810;9.120;2022-09-17T02:44:46;4.50;;;2.60;;
209;SDS011;90;48.810;9.120;2022-09-17T02:47:30;3.20;;;2.67;;
209;SDS011;90;48.810;9.120;2022-09-17T02:50:19;5.17;;;2.87;;
209;SDS011;90;48.810;9.120;2022-09-17T02:53:02;6.27;;;2.97;;
209;SDS011;90;48.810;9.120;2022-09-17T02:55:38;2.80;;;2.60;;
209;SDS011;90;48.810;9.120;2022-09-17T02:58:13;5.20;;;2.67;;
209;SDS011;90;48.810;9.120;2022-09-17T03:00:48;3.80;;;2.77;;
209;SDS011;90;48.810;9.120;2022-09-17T03:03:18;2.87;;;2.67;;
209;SDS011;90;48.810;9.120;2022-09-17T03:05:48;2.80;;;2.50;;
209;SDS011;90;48.810;9.120;2022-09-17T03:08:16;6.20;;;2.97;;
209;SDS011;90;48.810;9.120;2022-09-17T03:10:44;3.13;;;2.73;;
209;SDS011;90;48.810;9.120;2022-09-17T03:13:13;5.30;;;2.97;;
209;SDS011;90;48.810;9.120;2022-09-17T03:15:41;7.43;;;3.00;;
209;SDS011;90;48.810;9.120;2022-09-17T03:18:08;4.57;;;2.67;;
209;SDS011;90;48.810;9.120;2022-09-17T03:20:36;5.27;;;2.70;;
209;SDS011;90;48.810;9.120;2022-09-17T03:23:03;5.60;;;2.80;;
209;SDS011;90;48.810;9.120;2022-09-17T03:25:30;4.07;;;2.73;;
209;SDS011;90;48.810;9.120;2022-09-17T03:27:57;4.37;;;2.60;;
209;SDS011;90;48.810;9.120;2022-09-17T03:30:25;3.23;;;2.80;;
209;SDS011;90;48.810;9.120;2022-09-17T03:32:52;6.43;;;2.77;;
209;SDS011;90;48.810;9.120;2022-09-17T03:35:19;5.70;;;3.17;;
209;SDS011;90;48.810;9.120;2022-09-17T03:37:47;4.17;;;2.90;;
209;SDS011;90;48.810;9.120;2022-09-17T03:40:14;5.30;;;2.80;;
209;SDS011;90;48.810;9.120;2022-09-17T03:42:42;6.03;;;3.20;;
209;SDS011;90;48.810;9.120;2022-09-17T03:45:09;5.80;;;3.47;;
209;SDS011;90;48.810;9.120;2022-09-17T03:47:36;6.03;;;3.33;;
209;SDS011;90;48.810;9.120;2022-09-17T03:50:04;4.83;;;3.00;;
209;SDS011;90;48.810;9.120;2022-09-17T03:52:32;8.83;;;2.60;;
209;SDS011;90;48.810;9.120;2022-09-17T03:55:01;7.33;;;2.40;;
209;SDS011;90;48.810;9.120;2022-09-17T03:57:28;3.80;;;3.10;;
209;SDS011;90;48.810;9.120;2022-09-17T03:59:55;5.90;;;3.00;;
209;SDS011;90;48.810;9.120;2022-09-17T04:02:22;10.17;;;3.00;;
209;SDS011;90;48.810;9.120;2022-09-17T04:04:49;7.67;;;3.00;;
209;SDS011;90;48.810;9.120;2022-09-17T04:07:18;3.23;;;3.03;;
209;SDS011;90;48.810;9.120;2022-09-17T04:09:45;8.03;;;2.77;;
209;SDS011;90;48.810;9.120;2022-09-17T04:12:13;4.83;;;2.83;;
209;SDS011;90;48.810;9.120;2022-09-17T04:14:40;4.60;;;3.00;;
209;SDS011;90;48.810;9.120;2022-09-17T04:17:07;7.60;;;3.17;;
209;SDS011;90;48.810;9.120;2022-09-17T04:19:36;3.33;;;2.93;;
209;SDS011;90;48.810;9.120;2022-09-17T04:22:03;3.23;;;3.03;;
209;SDS011;90;48.810;9.120;2022-09-17T04:24:30;5.17;;;3.27;;
209;SDS011;90;48.810;9.120;2022-09-17T04:26:57;7.53;;;2.80;;
209;SDS011;90;48.810;9.120;2022-09-17T04:29:25;4.70;;;3.40;;
209;SDS011;90;48.810;9.120;2022-09-17T04:31:53;3.40;;;2.97;;
209;SDS011;90;48.810;9.120;2022-09-17T04:34:20;5.03;;;3.27;;
209;SDS011;90;48.810;9.120;2022-09-17T04:36:47;4.77;;;2.93;;
209;SDS011;90;48.810;9.120;2022-09-17T04:39:14;4.80;;;3.00;;
209;SDS011;90;48.810;9.120;2022-09-17T04:41:41;3.87;;;3.00;;
209;SDS011;90;48.810;9.120;2022-09-17T04:44:09;3.73;;;3.37;;
209;SDS011;90;48.810;9.120;2022-09-17T04:46:40;4.23;;;3.30;;
209;SDS011;90;48.810;9.120;2022-09-17T04:49:07;4.43;;;3.00;;
209;SDS011;90;48.810;9.120;2022-09-17T04:51:34;5.67;;;3.77;;
209;SDS011;90;48.810;9.120;2022-09-17T04:54:01;6.20;;;3.17;;
209;SDS011;90;48.810;9.120;2022-09-17T04:56:29;8.60;;;3.90;;
209;SDS011;90;48.810;9.120;2022-09-17T04:58:56;7.53;;;3.37;;
209;SDS011;90;48.810;9.120;2022-09-17T05:01:23;6.47;;;3.43;;
209;SDS011;90;48.810;9.120;2022-09-17T05:03:51;12.27;;;3.70;;
209;SDS011;90;48.810;9.120;2022-09-17T05:06:18;5.33;;;3.53;;
209;SDS011;90;48.810;9.120;2022-09-17T05:08:45;8.77;;;4.40;;
209;SDS011;90;48.810;9.120;2022-09-17T05:11:12;8.98;;;3.53;;
209;SDS011;90;48.810;9.120;2022-09-17T05:13:39;6.80;;;3.57;;
209;SDS011;90;48.810;9.120;2022-09-17T05:16:06;5.53;;;3.30;;
209;SDS011;90;48.810;9.120;2022-09-17T05:18:34;6.97;;;3.57;;
209;SDS011;90;48.810;9.120;2022-09-17T05:21:02;6.47;;;3.43;;
209;SDS011;90;48.810;9.120;2022-09-17T05:23:30;11.00;;;3.73;;
209;SDS011;90;48.810;9.120;2022-09-17T05:25:57;6.27;;;3.07;;
209;SDS011;90;48.810;9.120;2022-09-17T05:28:25;8.90;;;3.70;;
209;SDS011;90;48.810;9.120;2022-09-17T05:30:57;8.03;;;3.53;;
209;SDS011;90;48.810;9.120;2022-09-17T05:33:24;10.93;;;3.87;;
209;SDS011;90;48.810;9.120;2022-09-17T05:35:51;6.50;;;3.90;;
209;SDS011;90;48.810;9.120;2022-09-17T05:38:20;4.73;;;3.70;;
209;SDS011;90;48.810;9.120;2022-09-17T05:40:47;3.43;;;3.23;;
209;SDS011;90;48.810;9.120;2022-09-17T05:43:14;4.30;;;4.00;;
209;SDS011;90;48.810;9.120;2022-09-17T05:45:42;5.50;;;3.87;;
209;SDS011;90;48.810;9.120;2022-09-17T05:48:10;7.30;;;4.23;;
209;SDS011;90;48.810;9.120;2022-09-17T05:50:38;5.80;;;3.73;;
209;SDS011;90;48.810;9.120;2022-09-17T05:53:07;9.00;;;4.57;;
209;SDS011;90;48.810;9.120;2022-09-17T05:55:37;10.80;;;4.27;;
209;SDS011;90;48.810;9.120;2022-09-17T05:58:08;8.80;;;4.67;;
209;SDS011;90;48.810;9.120;2022-09-17T06:00:36;5.47;;;4.20;;
209;SDS011;90;48.810;9.120;2022-09-17T06:03:06;7.40;;;4.43;;
209;SDS011;90;48.810;9.120;2022-09-17T06:05:34;8.77;;;4.70;;
209;SDS011;90;48.810;9.120;2022-09-17T06:08:01;6.10;;;5.03;;
209;SDS011;90;48.810;9.120;2022-09-17T06:10:29;8.40;;;4.50;;
209;SDS011;90;48.810;9.120;2022-09-17T06:12:58;6.73;;;4.27;;
209;SDS011;90;48.810;9.120;2022-09-17T06:15:26;10.00;;;4.50;;
209;SDS011;90;48.810;9.120;2022-09-17T06:17:53;6.00;;;4.00;;
209;SDS011;90;48.810;9.120;2022-09-17T06:20:20;6.40;;;4.13;;
209;SDS011;90;48.810;9.120;2022-09-17T06:22:48;10.60;;;4.70;;
209;SDS011;90;48.810;9.120;2022-09-17T06:25:20;7.27;;;4.60;;
209;SDS011;90;48.810;9.120;2022-09-17T06:27:48;11.97;;;4.50;;
209;SDS011;90;48.810;9.120;2022-09-17T06:30:17;11.60;;;5.30;;
209;SDS011;90;48.810;9.120;2022-09-17T06:32:44;7.20;;;4.40;;
209;SDS011;90;48.810;9.120;2022-09-17T06:35:11;8.30;;;4.90;;
209;SDS011;90;48.810;9.120;2022-09-17T06:37:38;7.03;;;4.43;;
209;SDS011;90;48.810;9.120;2022-09-17T06:40:06;5.27;;;4.90;;
209;SDS011;90;48.810;9.120;2022-09-17T06:42:34;4.80;;;4.07;;
209;SDS011;90;48.810;9.120;2022-09-17T06:45:01;7.93;;;4.60;;
209;SDS011;90;48.810;9.120;2022-09-17T06:47:29;9.27;;;4.60;;
209;SDS011;90;48.810;9.120;2022-09-17T06:49:56;4.80;;;4.33;;
209;SDS011;90;48.810;9.120;2022-09-17T06:52:25;6.37;;;4.57;;
209;SDS011;90;48.810;9.120;2022-09-17T06:54:52;8.73;;;3.83;;
209;SDS011;90;48.810;9.120;2022-09-17T06:57:20;5.27;;;3.83;;
209;SDS011;90;48.810;9.120;2022-09-17T06:59:47;5.10;;;4.30;;
209;SDS011;90;48.810;9.120;2022-09-17T07:02:15;5.23;;;3.80;;
209;SDS011;90;48.810;9.120;2022-09-17T07:04:50;6.10;;;4.43;;
209;SDS011;90;48.810;9.120;2022-09-17T07:07:19;11.10;;;4.20;;
209;SDS011;90;48.810;9.120;2022-09-17T07:09:46;6.00;;;4.23;;
209;SDS011;90;48.810;9.120;2022-09-17T07:12:13;10.10;;;4.73;;
209;SDS011;90;48.810;9.120;2022-09-17T07:14:40;5.80;;;4.17;;
209;SDS011;90;48.810;9.120;2022-09-17T07:17:07;10.33;;;5.30;;
209;SDS011;90;48.810;9.120;2022-09-17T07:19:34;5.17;;;4.57;;
209;SDS011;90;48.810;9.120;2022-09-17T07:22:03;5.63;;;4.40;;
209;SDS011;90;48.810;9.120;2022-09-17T07:24:31;5.77;;;4.70;;
209;SDS011;90;48.810;9.120;2022-09-17T07:27:00;6.30;;;4.60;;
209;SDS011;90;48.810;9.120;2022-09-17T07:29:27;5.57;;;3.87;;
209;SDS011;90;48.810;9.120;2022-09-17T07:31:55;7.57;;;4.93;;
209;SDS011;90;48.810;9.120;2022-09-17T07:34:23;6.73;;;4.77;;
209;SDS011;90;48.810;9.120;2022-09-17T07:36:52;8.63;;;4.50;;
209;SDS011;90;48.810;9.120;2022-09-17T07:39:21;9.00;;;4.60;;
209;SDS011;90;48.810;9.120;2022-09-17T07:41:49;4.90;;;4.60;;
209;SDS011;90;48.810;9.120;2022-09-17T07:44:17;4.63;;;4.37;;
209;SDS011;90;48.810;9.120;2022-09-17T07:46:44;4.90;;;4.57;;
209;SDS011;90;48.810;9.120;2022-09-17T07:49:11;5.83;;;4.13;;
209;SDS011;90;48.810;9.120;2022-09-17T07:51:39;6.10;;;4.07;;
209;SDS011;90;48.810;9.120;2022-09-17T07:54:08;4.03;;;3.80;;
209;SDS011;90;48.810;9.120;2022-09-17T07:56:38;5.77;;;4.30;;
209;SDS011;90;48.810;9.120;2022-09-17T07:59:05;4.33;;;3.87;;
209;SDS011;90;48.810;9.120;2022-09-17T08:01:34;4.00;;;3.80;;
209;SDS011;90;48.810;9.120;2022-09-17T08:04:01;5.60;;;4.50;;
209;SDS011;90;48.810;9.120;2022-09-17T08:06:30;7.80;;;4.77;;
209;SDS011;90;48.810;9.120;2022-09-17T08:08:57;4.73;;;4.43;;
209;SDS011;90;48.810;9.120;2022-09-17T08:11:25;5.83;;;4.60;;
209;SDS011;90;48.810;9.120;2022-09-17T08:13:55;5.90;;;4.57;;
209;SDS011;90;48.810;9.120;2022-09-17T08:16:22;6.20;;;4.70;;
209;SDS011;90;48.810;9.120;2022-09-17T08:18:52;6.80;;;4.60;;
209;SDS011;90;48.810;9.120;2022-09-17T08:21:21;7.63;;;4.70;;
209;SDS011;90;48.810;9.120;2022-09-17T08:23:49;9.70;;;5.73;;
209;SDS011;90;48.810;9.120;2022-09-17T08:26:16;8.67;;;5.00;;
209;SDS011;90;48.810;9.120;2022-09-17T08:28:46;8.07;;;4.60;;
209;SDS011;90;48.810;9.120;2022-09-17T08:31:16;6.27;;;4.80;;
209;SDS011;90;48.810;9.120;2022-09-17T08:33:44;10.50;;;5.40;;
209;SDS011;90;48.810;9.120;2022-09-17T08:36:13;9.97;;;5.30;;
209;SDS011;90;48.810;9.120;2022-09-17T08:38:41;11.70;;;5.10;;
209;SDS011;90;48.810;9.120;2022-09-17T08:41:15;12.40;;;4.93;;
209;SDS011;90;48.810;9.120;2022-09-17T08:43:49;6.03;;;4.50;;
209;SDS011;90;48.810;9.120;2022-09-17T08:46:27;9.30;;;5.30;;
209;SDS011;90;48.810;9.120;2022-09-17T08:49:00;4.87;;;4.57;;
209;SDS011;90;48.810;9.120;2022-09-17T08:51:35;8.97;;;5.47;;
209;SDS011;90;48.810;9.120;2022-09-17T08:54:09;10.77;;;4.83;;
209;SDS011;90;48.810;9.120;2022-09-17T08:56:44;9.60;;;4.87;;
209;SDS011;90;48.810;9.120;2022-09-17T08:59:18;10.93;;;4.77;;
209;SDS011;90;48.810;9.120;2022-09-17T09:01:55;10.65;;;4.55;;
209;SDS011;90;48.810;9.120;2022-09-17T09:04:38;8.33;;;4.27;;
209;SDS011;90;48.810;9.120;2022-09-17T09:07:23;8.13;;;4.27;;
209;SDS011;90;48.810;9.120;2022-09-17T09:09:55;9.97;;;4.87;;
209;SDS011;90;48.810;9.120;2022-09-17T09:12:34;9.80;;;4.80;;
209;SDS011;90;48.810;9.120;2022-09-17T09:15:03;5.97;;;4.60;;
209;SDS011;90;48.810;9.120;2022-09-17T09:17:36;11.07;;;5.33;;
209;SDS011;90;48.810;9.120;2022-09-17T09:20:11;7.17;;;4.30;;
209;SDS011;90;48.810;9.120;2022-09-17T09:22:44;10.20;;;4.83;;
209;SDS011;90;48.810;9.120;2022-09-17T09:25:17;13.60;;;5.03;;
209;SDS011;90;48.810;9.120;2022-09-17T09:27:49;13.73;;;5.20;;
209;SDS011;90;48.810;9.120;2022-09-17T09:30:36;14.83;;;5.40;;
209;SDS011;90;48.810;9.120;2022-09-17T09:33:14;12.00;;;4.30;;
209;SDS011;90;48.810;9.120;2022-09-17T09:35:46;7.40;;;4.70;;
209;SDS011;90;48.810;9.120;2022-09-17T09:38:16;15.00;;;5.23;;
209;SDS011;90;48.810;9.120;2022-09-17T09:40:50;6.80;;;4.97;;
209;SDS011;90;48.810;9.120;2022-09-17T09:43:27;7.90;;;4.80;;
209;SDS011;90;48.810;9.120;2022-09-17T09:46:21;10.30;;;4.33;;
209;SDS011;90;48.810;9.120;2022-09-17T09:49:07;7.30;;;4.30;;
209;SDS011;90;48.810;9.120;2022-09-17T09:51:46;11.00;;;4.40;;
209;SDS011;90;48.810;9.120;2022-09-17T09:54:24;5.97;;;4.70;;
209;SDS011;90;48.810;9.120;2022-09-17T09:57:02;8.90;;;4.53;;
209;SDS011;90;48.810;9.120;2022-09-17T09:59:32;9.80;;;4.17;;
209;SDS011;90;48.810;9.120;2022-09-17T10:02:01;11.23;;;5.00;;
209;SDS011;90;48.810;9.120;2022-09-17T10:04:29;7.90;;;5.00;;
209;SDS011;90;48.810;9.120;2022-09-17T10:06:59;8.50;;;4.10;;
209;SDS011;90;48.810;9.120;2022-09-17T10:09:28;7.33;;;4.10;;
209;SDS011;90;48.810;9.120;2022-09-17T10:12:00;5.83;;;3.87;;
209;SDS011;90;48.810;9.120;2022-09-17T10:14:30;5.90;;;3.70;;
209;SDS011;90;48.810;9.120;2022-09-17T10:17:14;8.30;;;4.10;;
209;SDS011;90;48.810;9.120;2022-09-17T10:19:46;4.77;;;3.80;;
209;SDS011;90;48.810;9.120;2022-09-17T10:22:29;5.07;;;4.00;;
209;SDS011;90;48.810;9.120;2022-09-17T10:24:58;8.00;;;4.80;;
209;SDS011;90;48.810;9.120;2022-09-17T10:27:27;7.20;;;3.63;;
209;SDS011;90;48.810;9.120;2022-09-17T10:30:02;9.70;;;4.13;;
209;SDS011;90;48.810;9.120;2022-09-17T10:32:39;5.20;;;4.03;;
209;SDS011;90;48.810;9.120;2022-09-17T10:35:23;4.70;;;3.57;;
209;SDS011;90;48.810;9.120;2022-09-17T10:37:54;12.77;;;3.67;;
209;SDS011;90;48.810;9.120;2022-09-17T10:40:25;8.40;;;3.63;;
209;SDS011;90;48.810;9.120;2022-09-17T10:45:56;5.17;;;3.70;;
209;SDS011;90;48.810;9.120;2022-09-17T10:48:25;3.67;;;3.47;;
209;SDS011;90;48.810;9.120;2022-09-17T10:50:58;5.43;;;3.30;;
209;SDS011;90;48.810;9.120;2022-09-17T10:53:27;5.67;;;2.93;;
209;SDS011;90;48.810;9.120;2022-09-17T10:55:57;5.27;;;3.10;;
209;SDS011;90;48.810;9.120;2022-09-17T10:58:35;5.13;;;3.50;;
209;SDS011;90;48.810;9.120;2022-09-17T11:01:13;4.77;;;3.60;;
209;SDS011;90;48.810;9.120;2022-09-17T11:04:03;5.60;;;4.00;;
209;SDS011;90;48.810;9.120;2022-09-17T11:06:52;5.63;;;3.17;;
209;SDS011;90;48.810;9.120;2022-09-17T11:09:40;6.10;;;3.20;;
209;SDS011;90;48.810;9.120;2022-09-17T11:12:23;4.37;;;3.30;;
209;SDS011;90;48.810;9.120;2022-09-17T11:15:00;8.20;;;3.43;;
209;SDS011;90;48.810;9.120;2022-09-17T11:17:46;4.17;;;3.00;;
209;SDS011;90;48.810;9.120;2022-09-17T11:20:40;8.10;;;3.23;;
209;SDS011;90;48.810;9.120;2022-09-17T11:23:29;7.57;;;3.03;;
209;SDS011;90;48.810;9.120;2022-09-17T11:26:17;5.30;;;3.07;;
209;SDS011;90;48.810;9.120;2022-09-17T11:29:01;5.07;;;3.27;;
209;SDS011;90;48.810;9.120;2022-09-17T11:31:40;4.87;;;3.03;;
209;SDS011;90;48.810;9.120;2022-09-17T11:34:25;3.17;;;2.80;;
209;SDS011;90;48.810;9.120;2022-09-17T11:36:58;4.10;;;3.00;;
209;SDS011;90;48.810;9.120;2022-09-17T11:39:32;5.03;;;3.00;;
209;SDS011;90;48.810;9.120;2022-09-17T11:42:06;3.90;;;2.50;;
209;SDS011;90;48.810;9.120;2022-09-17T11:44:38;6.63;;;2.77;;
209;SDS011;90;48.810;9.120;2022-09-17T11:47:12;7.00;;;3.07;;
209;SDS011;90;48.810;9.120;2022-09-17T11:49:44;6.23;;;3.03;;
209;SDS011;90;48.810;9.120;2022-09-17T11:52:17;5.80;;;3.10;;
209;SDS011;90;48.810;9.120;2022-09-17T11:54:51;3.33;;;3.13;;
209;SDS011;90;48.810;9.120;2022-09-17T11:57:24;10.40;;;2.80;;
209;SDS011;90;48.810;9.120;2022-09-17T11:59:58;5.27;;;2.87;;
209;SDS011;90;48.810;9.120;2022-09-17T12:02:36;2.97;;;2.60;;
209;SDS011;90;48.810;9.120;2022-09-17T12:05:13;2.77;;;2.47;;
209;SDS011;90;48.810;9.120;2022-09-17T12:07:46;2.60;;;2.40;;
209;SDS011;90;48.810;9.120;2022-09-17T12:13:18;6.10;;;3.43;;
209;SDS011;90;48.810;9.120;2022-09-17T12:15:56;5.73;;;3.50;;
209;SDS011;90;48.810;9.120;2022-09-17T12:18:41;3.37;;;3.23;;
209;SDS011;90;48.810;9.120;2022-09-17T12:21:28;5.93;;;3.13;;
209;SDS011;90;48.810;9.120;2022-09-17T12:23:58;5.40;;;3.23;;
209;SDS011;90;48.810;9.120;2022-09-17T12:26:37;2.83;;;2.53;;
209;SDS011;90;48.810;9.120;2022-09-17T12:29:21;6.43;;;3.87;;
209;SDS011;90;48.810;9.120;2022-09-17T12:31:56;4.00;;;2.93;;
209;SDS011;90;48.810;9.120;2022-09-17T12:34:34;2.60;;;2.40;;
209;SDS011;90;48.810;9.120;2022-09-17T12:37:13;3.30;;;3.10;;
209;SDS011;90;48.810;9.120;2022-09-17T12:39:54;3.60;;;2.73;;
209;SDS011;90;48.810;9.120;2022-09-17T12:45:26;2.33;;;2.13;;
209;SDS011;90;48.810;9.120;2022-09-17T12:48:10;6.33;;;2.60;;
209;SDS011;90;48.810;9.120;2022-09-17T12:50:54;2.60;;;2.40;;
209;SDS011;90;48.810;9.120;2022-09-17T12:53:33;3.70;;;2.70;;
209;SDS011;90;48.810;9.120;2022-09-17T12:56:09;3.20;;;2.30;;
209;SDS011;90;48.810;9.120;2022-09-17T12:58:49;4.00;;;2.63;;
209;SDS011;90;48.810;9.120;2022-09-17T13:01:29;3.50;;;2.50;;
209;SDS011;90;48.810;9.120;2022-09-17T13:04:04;3.07;;;2.83;;
209;SDS011;90;48.810;9.120;2022-09-17T13:09:58;5.17;;;2.70;;
209;SDS011;90;48.810;9.120;2022-09-17T13:12:37;4.40;;;3.00;;
209;SDS011;90;48.810;9.120;2022-09-17T13:18:22;3.00;;;2.80;;
209;SDS011;90;48.810;9.120;2022-09-17T13:20:57;2.60;;;2.23;;
209;SDS011;90;48.810;9.120;2022-09-17T13:23:29;4.03;;;2.37;;
209;SDS011;90;48.810;9.120;2022-09-17T13:26:02;2.80;;;2.60;;
209;SDS011;90;48.810;9.120;2022-09-17T13:28:40;2.90;;;2.70;;
209;SDS011;90;48.810;9.120;2022-09-17T13:31:10;2.73;;;2.27;;
209;SDS011;90;48.810;9.120;2022-09-17T13:33:47;2.63;;;2.43;;
209;SDS011;90;48.810;9.120;2022-09-17T13:39:07;5.53;;;2.63;;
209;SDS011;90;48.810;9.120;2022-09-17T13:41:36;2.50;;;2.30;;
209;SDS011;90;48.810;9.120;2022-09-17T13:44:08;4.83;;;2.00;;
209;SDS011;90;48.810;9.120;2022-09-17T13:46:38;4.33;;;2.53;;
209;SDS011;90;48.810;9.120;2022-09-17T13:49:11;4.10;;;2.20;;
209;SDS011;90;48.810;9.120;2022-09-17T13:51:44;3.90;;;2.50;;
209;SDS011;90;48.810;9.120;2022-09-17T13:54:20;2.30;;;2.20;;
209;SDS011;90;48.810;9.120;2022-09-17T13:56:51;4.73;;;2.63;;
209;SDS011;90;48.810;9.120;2022-09-17T13:59:34;3.37;;;2.50;;
209;SDS011;90;48.810;9.120;2022-09-17T14:07:49;4.47;;;2.60;;
209;SDS011;90;48.810;9.120;2022-09-17T14:10:38;4.70;;;2.77;;
209;SDS011;90;48.810;9.120;2022-09-17T14:13:23;4.30;;;2.83;;
209;SDS011;90;48.810;9.120;2022-09-17T14:19:03;4.47;;;2.50;;
209;SDS011;90;48.810;9.120;2022-09-17T14:21:54;3.10;;;2.90;;
209;SDS011;90;48.810;9.120;2022-09-17T14:24:28;2.60;;;2.40;;
209;SDS011;90;48.810;9.120;2022-09-17T14:27:05;3.10;;;2.80;;
209;SDS011;90;48.810;9.120;2022-09-17T14:32:39;2.97;;;2.70;;
209;SDS011;90;48.810;9.120;2022-09-17T14:35:14;3.20;;;3.00;;
209;SDS011;90;48.810;9.120;2022-09-17T14:37:44;5.27;;;2.90;;
209;SDS011;90;48.810;9.120;2022-09-17T14:40:15;6.33;;;2.87;;
209;SDS011;90;48.810;9.120;2022-09-17T14:42:43;6.10;;;2.80;;
209;SDS011;90;48.810;9.120;2022-09-17T14:45:14;4.43;;;2.60;;
209;SDS011;90;48.810;9.120;2022-09-17T14:47:44;2.63;;;2.47;;
209;SDS011;90;48.810;9.120;2022-09-17T14:50:23;3.70;;;2.60;;
209;SDS011;90;48.810;9.120;2022-09-17T14:52:52;6.83;;;3.63;;
209;SDS011;90;48.810;9.120;2022-09-17T14:55:20;4.60;;;2.80;;
209;SDS011;90;48.810;9.120;2022-09-17T14:57:51;3.53;;;2.80;;
209;SDS011;90;48.810;9.120;2022-09-17T15:00:20;2.80;;;2.60;;
209;SDS011;90;48.810;9.120;2022-09-17T15:02:49;3.33;;;2.80;;
209;SDS011;90;48.810;9.120;2022-09-17T15:05:20;3.83;;;2.67;;
209;SDS011;90;48.810;9.120;2022-09-17T15:07:51;3.10;;;2.73;;
209;SDS011;90;48.810;9.120;2022-09-17T15:10:31;6.55;;;3.20;;
209;SDS011;90;48.810;9.120;2022-09-17T15:13:01;3.90;;;2.97;;
209;SDS011;90;48.810;9.120;2022-09-17T15:15:28;4.50;;;2.80;;
209;SDS011;90;48.810;9.120;2022-09-17T15:17:56;4.73;;;2.57;;
209;SDS011;90;48.810;9.120;2022-09-17T15:20:27;3.20;;;2.97;;
209;SDS011;90;48.810;9.120;2022-09-17T15:22:58;4.53;;;2.80;;
209;SDS011;90;48.810;9.120;2022-09-17T15:25:33;4.17;;;3.50;;
209;SDS011;90;48.810;9.120;2022-09-17T15:28:03;3.30;;;2.53;;
209;SDS011;90;48.810;9.120;2022-09-17T15:30:38;4.60;;;2.97;;
209;SDS011;90;48.810;9.120;2022-09-17T15:33:08;4.63;;;3.20;;
209;SDS011;90;48.810;9.120;2022-09-17T15:35:38;3.60;;;2.77;;
209;SDS011;90;48.810;9.120;2022-09-17T15:38:18;5.17;;;3.03;;
209;SDS011;90;48.810;9.120;2022-09-17T15:40:46;5.60;;;3.00;;
209;SDS011;90;48.810;9.120;2022-09-17T15:43:15;5.20;;;3.43;;
209;SDS011;90;48.810;9.120;2022-09-17T15:45:46;3.87;;;3.17;;
209;SDS011;90;48.810;9.120;2022-09-17T15:48:20;4.70;;;3.27;;
209;SDS011;90;48.810;9.120;2022-09-17T15:51:03;6.17;;;3.47;;
209;SDS011;90;48.810;9.120;2022-09-17T15:53:32;6.10;;;3.60;;
209;SDS011;90;48.810;9.120;2022-09-17T15:56:01;3.17;;;2.60;;
209;SDS011;90;48.810;9.120;2022-09-17T15:58:34;3.80;;;2.80;;
209;SDS011;90;48.810;9.120;2022-09-17T16:04:20;3.27;;;2.60;;
209;SDS011;90;48.810;9.120;2022-09-17T16:06:52;6.83;;;2.50;;
209;SDS011;90;48.810;9.120;2022-09-17T16:09:37;2.60;;;2.40;;
209;SDS011;90;48.810;9.120;2022-09-17T16:12:06;3.00;;;2.40;;
209;SDS011;90;48.810;9.120;2022-09-17T16:14:37;3.37;;;2.47;;
209;SDS011;90;48.810;9.120;2022-09-17T16:20:04;2.83;;;2.50;;
209;SDS011;90;48.810;9.120;2022-09-17T16:22:39;4.50;;;2.53;;
209;SDS011;90;48.810;9.120;2022-09-17T16:25:09;2.77;;;2.10;;
209;SDS011;90;48.810;9.120;2022-09-17T16:27:44;3.63;;;2.63;;
209;SDS011;90;48.810;9.120;2022-09-17T16:30:14;3.67;;;2.67;;
209;SDS011;90;48.810;9.120;2022-09-17T16:32:42;3.87;;;2.60;;
209;SDS011;90;48.810;9.120;2022-09-17T16:35:13;4.80;;;2.70;;
209;SDS011;90;48.810;9.120;2022-09-17T16:37:42;3.90;;;3.03;;
209;SDS011;90;48.810;9.120;2022-09-17T16:40:10;3.80;;;3.00;;
209;SDS011;90;48.810;9.120;2022-09-17T16:42:37;3.60;;;2.67;;
209;SDS011;90;48.810;9.120;2022-09-17T16:45:05;8.90;;;3.07;;
209;SDS011;90;48.810;9.120;2022-09-17T16:47:33;3.37;;;2.90;;
209;SDS011;90;48.810;9.120;2022-09-17T16:50:06;3.63;;;3.40;;
209;SDS011;90;48.810;9.120;2022-09-17T16:52:35;3.33;;;2.73;;
209;SDS011;90;48.810;9.120;2022-09-17T16:55:04;2.93;;;2.33;;
209;SDS011;90;48.810;9.120;2022-09-17T16:57:34;3.90;;;2.90;;
209;SDS011;90;48.810;9.120;2022-09-17T17:00:01;5.20;;;2.63;;
209;SDS011;90;48.810;9.120;2022-09-17T17:02:29;5.90;;;3.00;;
209;SDS011;90;48.810;9.120;2022-09-17T17:04:56;5.10;;;3.07;;
209;SDS011;90;48.810;9.120;2022-09-17T17:07:26;5.93;;;3.30;;
209;SDS011;90;48.810;9.120;2022-09-17T17:09:53;7.70;;;3.50;;